createdAt,value
2023-02-19T00:01:36.576Z,101365.59
2023-02-19T00:04:07.304Z,101369.53
2023-02-19T00:06:36.193Z,101372.47
2023-02-19T00:09:04.558Z,101373.94
2023-02-19T00:11:34.115Z,101368.47
2023-02-19T00:14:03.506Z,101367.50
2023-02-19T00:16:32.897Z,101369.94
2023-02-19T00:19:02.404Z,101372.44
2023-02-19T00:21:30.344Z,101368.78
2023-02-19T00:24:01.494Z,101369.94
2023-02-19T00:26:29.571Z,101378.72
2023-02-19T00:28:58.010Z,101379.69
2023-02-19T00:31:27.643Z,101378.06
2023-02-19T00:33:58.665Z,101378.06
2023-02-19T00:36:28.004Z,101379.69
2023-02-19T00:38:55.376Z,101370.97
2023-02-19T00:41:24.666Z,101366.66
2023-02-19T00:43:54.818Z,101372.13
2023-02-19T00:46:24.344Z,101371.66
2023-02-19T00:48:54.813Z,101377.94
2023-02-19T00:51:23.569Z,101375.44
2023-02-19T00:53:51.337Z,101374.63
2023-02-19T00:56:18.822Z,101380.91
2023-02-19T00:58:48.278Z,101377.13
2023-02-19T01:01:15.956Z,101377.31
2023-02-19T01:03:43.312Z,101372.19
2023-02-19T01:06:13.115Z,101365.63
2023-02-19T01:08:40.098Z,101376.88
2023-02-19T01:11:08.889Z,101370.13
2023-02-19T01:13:36.241Z,101362.38
2023-02-19T01:16:06.796Z,101370.97
2023-02-19T01:18:33.987Z,101380.25
2023-02-19T01:21:05.530Z,101379.75
2023-02-19T01:23:32.725Z,101383.38
2023-02-19T01:25:59.688Z,101388.50
2023-02-19T01:28:26.854Z,101384.56
2023-02-19T01:30:53.821Z,101383.25
2023-02-19T01:33:22.350Z,101386.88
2023-02-19T01:35:49.296Z,101390.69
2023-02-19T01:38:16.154Z,101388.38
2023-02-19T01:40:43.050Z,101373.53
2023-02-19T01:43:16.083Z,101374.69
2023-02-19T01:45:45.304Z,101372.03
2023-02-19T01:48:18.879Z,101379.97
2023-02-19T01:50:52.678Z,101382.47
2023-02-19T01:53:25.840Z,101382.13
2023-02-19T01:55:59.367Z,101388.88
2023-02-19T01:58:33.335Z,101389.88
2023-02-19T02:01:02.793Z,101392.31
2023-02-19T02:03:31.255Z,101391.16
2023-02-19T02:06:05.233Z,101392.81
2023-02-19T02:08:52.165Z,101386.72
2023-02-19T02:11:20.605Z,101388.53
2023-02-19T02:13:48.762Z,101394.81
2023-02-19T02:16:25.236Z,101391.03
2023-02-19T02:19:09.560Z,101399.91
2023-02-19T02:21:59.027Z,101393.16
2023-02-19T02:25:13.125Z,101390.22
2023-02-19T02:27:51.429Z,101396.50
2023-02-19T02:30:39.112Z,101404.72
2023-02-19T02:33:21.616Z,101406.22
2023-02-19T02:35:54.222Z,101401.78
2023-02-19T02:38:28.080Z,101402.59
2023-02-19T02:40:56.643Z,101403.06
2023-02-19T02:43:24.409Z,101404.72
2023-02-19T02:45:52.790Z,101396.81
2023-02-19T02:48:30.290Z,101389.72
2023-02-19T02:51:04.734Z,101393.84
2023-02-19T02:53:57.181Z,101393.84
2023-02-19T02:56:26.416Z,101386.91
2023-02-19T02:58:57.553Z,101395.34
2023-02-19T03:01:51.265Z,101403.09
2023-02-19T03:04:27.482Z,101398.50
2023-02-19T03:06:56.424Z,101397.22
2023-02-19T03:09:40.565Z,101394.88
2023-02-19T03:12:32.387Z,101411.34
2023-02-19T03:15:28.488Z,101416.63
2023-02-19T03:18:21.005Z,101428.13
2023-02-19T03:20:53.216Z,101439.69
2023-02-19T03:23:43.369Z,101438.34
2023-02-19T03:26:11.946Z,101437.38
2023-02-19T03:29:00.918Z,101447.56
2023-02-19T03:31:33.112Z,101448.59
2023-02-19T03:34:05.687Z,101443.63
2023-02-19T03:36:42.218Z,101445.59
2023-02-19T03:39:14.174Z,101460.41
2023-02-19T03:41:53.005Z,101464.72
2023-02-19T03:44:33.418Z,101472.31
2023-02-19T03:47:08.328Z,101471.63
2023-02-19T03:49:48.836Z,101478.25
2023-02-19T03:52:23.732Z,101489.13
2023-02-19T03:55:03.068Z,101485.34
2023-02-19T03:57:39.359Z,101492.75
2023-02-19T04:00:13.826Z,101503.81
2023-02-19T04:02:50.201Z,101504.66
2023-02-19T04:05:22.619Z,101507.09
2023-02-19T04:07:54.280Z,101512.22
2023-02-19T04:10:22.566Z,101521.81
2023-02-19T04:12:57.664Z,101529.56
2023-02-19T04:15:31.615Z,101528.75
2023-02-19T04:18:04.124Z,101534.31
2023-02-19T04:20:39.081Z,101547.16
2023-02-19T04:23:06.860Z,101549.13
2023-02-19T04:25:37.067Z,101549.13
2023-02-19T04:28:04.662Z,101554.09
2023-02-19T04:30:32.488Z,101566.91
2023-02-19T04:32:59.357Z,101565.94
2023-02-19T04:35:26.326Z,101563.16
2023-02-19T04:37:54.500Z,101572.56
2023-02-19T04:40:21.370Z,101567.97
2023-02-19T04:42:48.219Z,101583.47
2023-02-19T04:45:15.272Z,101578.84
2023-02-19T04:47:42.120Z,101584.13
2023-02-19T04:50:09.248Z,101589.41
2023-02-19T04:52:36.382Z,101593.53
2023-02-19T04:55:05.889Z,101603.25
2023-02-19T04:57:32.760Z,101602.75
2023-02-19T04:59:59.668Z,101599.78
2023-02-19T05:02:26.617Z,101603.84
2023-02-19T05:04:53.582Z,101607.78
2023-02-19T05:07:20.446Z,101614.22
2023-02-19T05:09:47.363Z,101619.97
2023-02-19T05:12:15.532Z,101623.06
2023-02-19T05:14:42.400Z,101625.19
2023-02-19T05:17:09.277Z,101625.19
2023-02-19T05:19:36.229Z,101638.72
2023-02-19T05:22:03.137Z,101636.13
2023-02-19T05:24:31.459Z,101634.50
2023-02-19T05:26:58.387Z,101637.84
2023-02-19T05:29:26.908Z,101650.53
2023-02-19T05:31:53.931Z,101657.47
2023-02-19T05:34:20.929Z,101667.50
2023-02-19T05:36:47.792Z,101672.25
2023-02-19T05:39:14.738Z,101678.00
2023-02-19T05:41:41.873Z,101681.13
2023-02-19T05:44:10.609Z,101685.22
2023-02-19T05:46:38.920Z,101693.59
2023-02-19T05:49:05.848Z,101700.00
2023-02-19T05:51:32.731Z,101709.22
2023-02-19T05:53:59.672Z,101714.78
2023-02-19T05:56:35.914Z,101719.84
2023-02-19T05:59:07.758Z,101724.59
2023-02-19T06:01:35.482Z,101728.19
2023-02-19T06:04:04.180Z,101727.91
2023-02-19T06:06:31.219Z,101719.69
2023-02-19T06:08:58.253Z,101733.38
2023-02-19T06:11:25.717Z,101730.28
2023-02-19T06:13:53.006Z,101737.19
2023-02-19T06:16:20.023Z,101735.88
2023-02-19T06:18:47.524Z,101740.09
2023-02-19T06:21:17.405Z,101756.00
2023-02-19T06:23:44.847Z,101754.13
2023-02-19T06:26:14.761Z,101770.19
2023-02-19T06:28:42.593Z,101776.22
2023-02-19T06:31:10.892Z,101773.38
2023-02-19T06:33:40.425Z,101779.22
2023-02-19T06:36:11.523Z,101787.41
2023-02-19T06:38:40.271Z,101790.50
2023-02-19T06:41:09.802Z,101791.63
2023-02-19T06:43:36.938Z,101806.75
2023-02-19T06:46:06.530Z,101800.81
2023-02-19T06:48:34.883Z,101813.28
2023-02-19T06:51:02.079Z,101825.47
2023-02-19T06:53:29.463Z,101828.09
2023-02-19T06:55:59.616Z,101823.81
2023-02-19T06:58:26.993Z,101838.63
2023-02-19T07:00:54.221Z,101832.09
2023-02-19T07:03:21.913Z,101844.53
2023-02-19T07:05:49.070Z,101849.47
2023-02-19T07:08:17.244Z,101861.84
2023-02-19T07:10:44.549Z,101864.47
2023-02-19T07:13:12.899Z,101870.56
2023-02-19T07:15:39.786Z,101873.19
2023-02-19T07:18:10.215Z,101874.84
2023-02-19T07:20:37.612Z,101892.16
2023-02-19T07:23:04.531Z,101902.69
2023-02-19T07:25:31.618Z,101906.31
2023-02-19T07:27:58.578Z,101901.03
2023-02-19T07:30:26.816Z,101917.38
2023-02-19T07:32:53.727Z,101922.88
2023-02-19T07:35:20.623Z,101930.28
2023-02-19T07:37:47.472Z,101931.00
2023-02-19T07:40:14.714Z,101939.22
2023-02-19T07:42:41.672Z,101942.06
2023-02-19T07:45:08.860Z,101949.53
2023-02-19T07:47:37.226Z,101950.28
2023-02-19T07:50:04.906Z,101955.03
2023-02-19T07:52:33.471Z,101957.13
2023-02-19T07:55:00.339Z,101965.47
2023-02-19T07:57:28.763Z,101966.88
2023-02-19T07:59:55.619Z,101970.91
2023-02-19T08:02:41.157Z,101974.28
2023-02-19T08:05:10.483Z,101963.78
2023-02-19T08:07:37.727Z,101957.88
2023-02-19T08:10:24.714Z,101943.69
2023-02-19T08:13:17.863Z,101952.28
2023-02-19T08:15:45.350Z,101950.59
2023-02-19T08:18:14.141Z,101951.31
2023-02-19T08:20:43.727Z,101942.50
2023-02-19T08:23:12.191Z,101948.28
2023-02-19T08:25:40.601Z,101957.41
2023-02-19T08:28:10.665Z,101965.69
2023-02-19T08:30:39.817Z,101964.78
2023-02-19T08:33:08.323Z,101971.53
2023-02-19T08:35:36.512Z,101975.25
2023-02-19T08:38:07.991Z,101976.97
2023-02-19T08:40:35.344Z,101992.69
2023-02-19T08:43:04.322Z,101989.69
2023-02-19T08:45:31.287Z,102001.63
2023-02-19T08:47:58.483Z,102000.63
2023-02-19T08:50:26.060Z,101999.59
2023-02-19T08:52:53.200Z,101994.88
2023-02-19T08:55:21.707Z,101998.47
2023-02-19T08:57:50.604Z,102005.31
2023-02-19T09:00:18.455Z,102010.13
2023-02-19T09:02:45.483Z,102005.59
2023-02-19T09:05:12.676Z,102021.44
2023-02-19T09:07:40.383Z,102025.38
2023-02-19T09:10:09.807Z,102037.88
2023-02-19T09:12:38.314Z,102037.72
2023-02-19T09:15:06.606Z,102032.16
2023-02-19T09:17:33.534Z,102040.38
2023-02-19T09:20:00.384Z,102037.25
2023-02-19T09:22:27.395Z,102046.03
2023-02-19T09:24:54.326Z,102051.69
2023-02-19T09:27:21.783Z,102069.28
2023-02-19T09:29:50.017Z,102070.69
2023-02-19T09:32:19.087Z,102086.13
2023-02-19T09:34:46.383Z,102086.66
2023-02-19T09:37:13.282Z,102080.13
2023-02-19T09:39:40.196Z,102086.44
2023-02-19T09:42:18.296Z,102106.31
2023-02-19T09:44:50.359Z,102115.38
2023-02-19T09:47:20.380Z,102125.34
2023-02-19T09:49:51.230Z,102131.34
2023-02-19T09:52:30.443Z,102130.72
2023-02-19T09:55:02.719Z,102134.50
2023-02-19T09:57:35.842Z,102145.59
2023-02-19T10:00:23.598Z,102152.22
2023-02-19T10:03:00.450Z,102146.78
2023-02-19T10:05:28.145Z,102151.13
2023-02-19T10:07:56.359Z,102148.09
2023-02-19T10:10:29.953Z,102147.94
2023-02-19T10:13:12.999Z,102161.19
2023-02-19T10:15:48.583Z,102163.13
2023-02-19T10:18:22.399Z,102168.84
2023-02-19T10:20:51.771Z,102167.06
2023-02-19T10:23:19.406Z,102165.09
2023-02-19T10:25:52.176Z,102163.50
2023-02-19T10:28:25.054Z,102157.41
2023-02-19T10:30:57.682Z,102160.91
2023-02-19T10:33:26.154Z,102150.59
2023-02-19T10:35:57.154Z,102141.38
2023-02-19T10:38:28.816Z,102136.09
2023-02-19T10:41:04.542Z,102136.59
2023-02-19T10:43:37.138Z,102148.72
2023-02-19T10:46:16.717Z,102160.59
2023-02-19T10:48:51.768Z,102172.69
2023-02-19T10:51:22.844Z,102175.66
2023-02-19T10:54:02.543Z,102188.06
2023-02-19T10:56:31.271Z,102203.53
2023-02-19T10:59:21.083Z,102209.41
2023-02-19T11:01:57.547Z,102216.44
2023-02-19T11:04:27.045Z,102213.72
2023-02-19T11:06:54.540Z,102213.91
2023-02-19T11:09:35.151Z,102218.13
2023-02-19T11:12:04.858Z,102214.19
2023-02-19T11:14:34.009Z,102220.94
2023-02-19T11:17:05.554Z,102231.44
2023-02-19T11:19:38.816Z,102219.31
2023-02-19T11:22:46.938Z,102218.69
2023-02-19T11:25:25.704Z,102222.19
2023-02-19T11:28:02.506Z,102211.03
2023-02-19T11:30:39.741Z,102211.31
2023-02-19T11:33:27.734Z,102207.19
2023-02-19T11:36:24.432Z,102203.00
2023-02-19T11:38:51.444Z,102193.66
2023-02-19T11:41:45.367Z,102205.56
2023-02-19T11:44:32.694Z,102204.91
2023-02-19T11:47:30.894Z,102194.03
2023-02-19T11:50:11.593Z,102201.69
2023-02-19T11:52:52.301Z,102190.47
2023-02-19T11:55:35.418Z,102193.38
2023-02-19T11:58:32.350Z,102195.03
2023-02-19T12:01:11.995Z,102192.97
2023-02-19T12:04:08.282Z,102194.00
2023-02-19T12:06:59.727Z,102197.03
2023-02-19T12:09:47.757Z,102203.25
2023-02-19T12:12:33.405Z,102202.81
2023-02-19T12:15:40.985Z,102211.31
2023-02-19T12:19:09.029Z,102212.91
2023-02-19T12:22:03.613Z,102223.59
2023-02-19T12:25:00.511Z,102224.19
2023-02-19T12:27:45.629Z,102218.75
2023-02-19T12:30:35.392Z,102214.41
2023-02-19T12:33:29.345Z,102216.28
2023-02-19T12:36:13.347Z,102217.09
2023-02-19T12:38:45.311Z,102213.97
2023-02-19T12:41:35.689Z,102208.22
2023-02-19T12:44:12.423Z,102214.41
2023-02-19T12:46:46.664Z,102212.22
2023-02-19T12:49:24.909Z,102213.78
2023-02-19T12:51:59.634Z,102213.22
2023-02-19T12:54:34.609Z,102214.94
2023-02-19T12:57:06.508Z,102216.16
2023-02-19T12:59:42.457Z,102212.53
2023-02-19T13:02:19.341Z,102220.94
2023-02-19T13:04:58.568Z,102235.84
2023-02-19T13:07:35.233Z,102225.91
2023-02-19T13:10:23.160Z,102215.44
2023-02-19T13:12:54.609Z,102208.22
2023-02-19T13:15:31.598Z,102199.56
2023-02-19T13:18:02.495Z,102199.97
2023-02-19T13:20:35.182Z,102201.22
2023-02-19T13:23:29.993Z,102205.72
2023-02-19T13:26:23.373Z,102207.97
2023-02-19T13:29:13.623Z,102208.59
2023-02-19T13:32:05.855Z,102212.28
2023-02-19T13:34:55.481Z,102218.50
2023-02-19T13:37:24.682Z,102214.38
2023-02-19T13:39:55.418Z,102224.06
2023-02-19T13:42:32.730Z,102222.19
2023-02-19T13:45:01.605Z,102225.88
2023-02-19T13:47:58.322Z,102223.31
2023-02-19T13:50:28.768Z,102220.78
2023-02-19T13:52:57.007Z,102219.44
2023-02-19T13:55:52.555Z,102238.34
2023-02-19T13:59:01.375Z,102243.16
2023-02-19T14:02:26.859Z,102242.41
2023-02-19T14:05:00.342Z,102244.16
2023-02-19T14:07:54.381Z,102246.16
2023-02-19T14:10:52.923Z,102252.34
2023-02-19T14:13:59.372Z,102255.44
2023-02-19T14:16:50.228Z,102259.91
2023-02-19T14:19:47.970Z,102248.94
2023-02-19T14:23:01.253Z,102254.28
2023-02-19T14:25:49.442Z,102248.25
2023-02-19T14:28:36.112Z,102251.81
2023-02-19T14:31:18.163Z,102236.56
2023-02-19T14:33:50.250Z,102235.25
2023-02-19T14:36:32.819Z,102229.78
2023-02-19T14:39:03.891Z,102218.00
2023-02-19T14:41:36.745Z,102206.16
2023-02-19T14:44:07.402Z,102204.22
2023-02-19T14:46:43.078Z,102200.50
2023-02-19T14:49:20.237Z,102195.91
2023-02-19T14:51:53.998Z,102185.84
2023-02-19T14:54:38.919Z,102186.88
2023-02-19T14:57:17.070Z,102181.94
2023-02-19T14:59:54.149Z,102188.75
2023-02-19T15:02:21.989Z,102184.28
2023-02-19T15:04:48.976Z,102180.59
2023-02-19T15:07:23.336Z,102185.56
2023-02-19T15:09:54.680Z,102190.38
2023-02-19T15:12:26.493Z,102186.59
2023-02-19T15:14:57.095Z,102185.13
2023-02-19T15:17:29.115Z,102190.59
2023-02-19T15:20:25.572Z,102195.59
2023-02-19T15:22:56.095Z,102193.91
2023-02-19T15:25:29.661Z,102200.56
2023-02-19T15:27:56.637Z,102202.56
2023-02-19T15:30:27.441Z,102202.06
2023-02-19T15:32:57.642Z,102194.59
2023-02-19T15:35:27.582Z,102188.47
2023-02-19T15:37:56.796Z,102196.59
2023-02-19T15:40:30.884Z,102201.59
2023-02-19T15:42:59.164Z,102207.88
2023-02-19T15:45:31.407Z,102199.59
2023-02-19T15:48:06.927Z,102215.34
2023-02-19T15:50:39.901Z,102205.91
2023-02-19T15:53:34.065Z,102208.22
2023-02-19T15:56:08.832Z,102204.44
2023-02-19T15:58:42.570Z,102212.22
2023-02-19T16:01:19.399Z,102217.69
2023-02-19T16:03:47.644Z,102225.47
2023-02-19T16:06:23.251Z,102231.44
2023-02-19T16:09:25.735Z,102231.25
2023-02-19T16:11:58.961Z,102234.09
2023-02-19T16:14:32.162Z,102233.72
2023-02-19T16:17:11.972Z,102232.06
2023-02-19T16:19:47.616Z,102229.59
2023-02-19T16:22:18.935Z,102226.09
2023-02-19T16:24:51.292Z,102222.78
2023-02-19T16:27:31.162Z,102225.09
2023-02-19T16:30:00.687Z,102225.28
2023-02-19T16:32:27.765Z,102231.72
2023-02-19T16:34:54.893Z,102244.28
2023-02-19T16:37:38.666Z,102252.84
2023-02-19T16:41:10.824Z,102253.47
2023-02-19T16:43:43.305Z,102251.13
2023-02-19T16:46:12.771Z,102260.38
2023-02-19T16:48:39.932Z,102246.13
2023-02-19T16:51:08.609Z,102264.97
2023-02-19T16:53:35.777Z,102269.91
2023-02-19T16:56:04.668Z,102256.16
2023-02-19T16:58:31.563Z,102255.66
2023-02-19T17:00:58.498Z,102256.13
2023-02-19T17:03:26.132Z,102255.63
2023-02-19T17:05:53.468Z,102251.78
2023-02-19T17:08:40.519Z,102258.00
2023-02-19T17:11:13.598Z,102258.31
2023-02-19T17:13:42.024Z,102250.56
2023-02-19T17:16:17.605Z,102252.84
2023-02-19T17:18:44.645Z,102251.16
2023-02-19T17:21:17.938Z,102260.41
2023-02-19T17:23:45.295Z,102252.09
2023-02-19T17:26:15.030Z,102255.22
2023-02-19T17:28:42.330Z,102262.78
2023-02-19T17:31:10.397Z,102260.59
2023-02-19T17:33:38.093Z,102256.63
2023-02-19T17:36:06.286Z,102261.38
2023-02-19T17:38:33.477Z,102267.13
2023-02-19T17:41:00.398Z,102273.53
2023-02-19T17:43:28.638Z,102273.03
2023-02-19T17:45:55.558Z,102273.28
2023-02-19T17:48:22.438Z,102277.22
2023-02-19T17:50:50.193Z,102276.41
2023-02-19T17:53:17.053Z,102273.88
2023-02-19T17:55:44.485Z,102281.81
2023-02-19T17:58:11.870Z,102287.44
2023-02-19T18:00:40.304Z,102294.81
2023-02-19T18:03:07.861Z,102305.38
2023-02-19T18:05:34.776Z,102304.53
2023-02-19T18:08:01.895Z,102299.25
2023-02-19T18:10:30.420Z,102297.44
2023-02-19T18:12:57.433Z,102304.53
2023-02-19T18:15:26.755Z,102301.91
2023-02-19T18:17:56.285Z,102304.53
2023-02-19T18:20:26.010Z,102311.50
2023-02-19T18:22:54.024Z,102300.09
2023-02-19T18:25:22.653Z,102303.41
2023-02-19T18:27:50.427Z,102296.03
2023-02-19T18:30:22.462Z,102295.03
2023-02-19T18:32:49.972Z,102291.41
2023-02-19T18:35:20.299Z,102289.75
2023-02-19T18:37:51.533Z,102283.66
2023-02-19T18:40:19.714Z,102275.84
2023-02-19T18:42:46.613Z,102278.66
2023-02-19T18:45:14.624Z,102279.50
2023-02-19T18:47:41.770Z,102274.22
2023-02-19T18:50:10.640Z,102277.66
2023-02-19T18:52:38.904Z,102267.09
2023-02-19T18:55:07.285Z,102269.06
2023-02-19T18:57:34.149Z,102270.06
2023-02-19T19:00:01.058Z,102268.38
2023-02-19T19:02:33.687Z,102268.53
2023-02-19T19:05:06.853Z,102267.03
2023-02-19T19:07:33.714Z,102269.13
2023-02-19T19:10:02.091Z,102284.59
2023-02-19T19:12:29.007Z,102288.25
2023-02-19T19:14:55.968Z,102282.28
2023-02-19T19:17:22.830Z,102291.84
2023-02-19T19:19:49.757Z,102277.22
2023-02-19T19:22:22.093Z,102278.91
2023-02-19T19:24:49.131Z,102279.31
2023-02-19T19:27:20.539Z,102274.38
2023-02-19T19:29:47.867Z,102278.13
2023-02-19T19:32:14.963Z,102275.28
2023-02-19T19:34:42.987Z,102276.84
2023-02-19T19:37:09.922Z,102278.28
2023-02-19T19:39:37.266Z,102273.44
2023-02-19T19:42:04.982Z,102284.28
2023-02-19T19:44:33.252Z,102279.28
2023-02-19T19:47:00.133Z,102274.00
2023-02-19T19:49:27.118Z,102278.34
2023-02-19T19:51:54.080Z,102274.84
2023-02-19T19:54:20.966Z,102267.09
2023-02-19T19:56:49.719Z,102262.78
2023-02-19T19:59:17.891Z,102267.09
2023-02-19T20:01:51.789Z,102256.13
2023-02-19T20:04:21.100Z,102244.91
2023-02-19T20:06:49.094Z,102240.59
2023-02-19T20:09:17.140Z,102242.38
2023-02-19T20:11:45.899Z,102244.34
2023-02-19T20:14:12.869Z,102247.16
2023-02-19T20:16:39.739Z,102242.56
2023-02-19T20:19:08.478Z,102240.59
2023-02-19T20:21:35.450Z,102237.94
2023-02-19T20:24:02.950Z,102236.31
2023-02-19T20:26:31.706Z,102239.91
2023-02-19T20:28:59.115Z,102234.63
2023-02-19T20:31:26.507Z,102246.03
2023-02-19T20:33:53.625Z,102246.88
2023-02-19T20:36:22.052Z,102248.66
2023-02-19T20:38:50.175Z,102247.81
2023-02-19T20:41:17.019Z,102239.91
2023-02-19T20:43:43.912Z,102247.66
2023-02-19T20:46:11.696Z,102248.50
2023-02-19T20:48:39.139Z,102247.53
2023-02-19T20:51:06.178Z,102246.88
2023-02-19T20:53:34.547Z,102246.88
2023-02-19T20:56:01.666Z,102245.19
2023-02-19T20:58:28.544Z,102250.47
2023-02-19T21:00:55.721Z,102245.19
2023-02-19T21:03:22.648Z,102247.16
2023-02-19T21:05:49.676Z,102245.47
2023-02-19T21:08:17.263Z,102252.03
2023-02-19T21:10:46.517Z,102256.78
2023-02-19T21:13:13.997Z,102249.75
2023-02-19T21:15:41.051Z,102248.53
2023-02-19T21:18:08.195Z,102245.50
2023-02-19T21:20:35.125Z,102247.16
2023-02-19T21:23:02.093Z,102245.19
2023-02-19T21:25:31.307Z,102245.59
2023-02-19T21:27:59.505Z,102247.25
2023-02-19T21:30:26.391Z,102236.72
2023-02-19T21:32:53.358Z,102235.03
2023-02-19T21:35:20.267Z,102229.75
2023-02-19T21:37:47.136Z,102221.84
2023-02-19T21:40:14.664Z,102216.28
2023-02-19T21:42:41.534Z,102207.38
2023-02-19T21:45:09.993Z,102197.78
2023-02-19T21:47:36.862Z,102191.69
2023-02-19T21:50:04.579Z,102195.16
2023-02-19T21:52:31.718Z,102190.84
2023-02-19T21:54:58.666Z,102180.28
2023-02-19T21:57:25.610Z,102175.00
2023-02-19T21:59:52.483Z,102166.13
2023-02-19T22:02:22.137Z,102160.56
2023-02-19T22:04:53.480Z,102163.56
2023-02-19T22:07:21.550Z,102175.50
2023-02-19T22:09:49.265Z,102190.19
2023-02-19T22:12:16.441Z,102191.84
2023-02-19T22:14:43.361Z,102192.69
2023-02-19T22:17:10.863Z,102199.75
2023-02-19T22:19:39.201Z,102198.25
2023-02-19T22:22:06.187Z,102199.41
2023-02-19T22:24:33.048Z,102199.41
2023-02-19T22:26:59.966Z,102204.81
2023-02-19T22:29:26.875Z,102216.22
2023-02-19T22:31:53.994Z,102218.69
2023-02-19T22:34:20.986Z,102214.41
2023-02-19T22:36:49.491Z,102207.75
2023-02-19T22:39:19.379Z,102211.38
2023-02-19T22:41:46.756Z,102210.03
2023-02-19T22:44:14.015Z,102220.59
2023-02-19T22:46:48.259Z,102212.94
2023-02-19T22:49:15.518Z,102207.00
2023-02-19T22:51:52.013Z,102208.97
2023-02-19T22:54:21.698Z,102208.97
2023-02-19T22:56:48.622Z,102209.75
2023-02-19T22:59:15.569Z,102202.00
2023-02-19T23:01:43.003Z,102207.28
2023-02-19T23:04:09.972Z,102190.91
2023-02-19T23:06:37.774Z,102204.25
2023-02-19T23:09:10.715Z,102196.78
2023-02-19T23:11:39.294Z,102199.25
2023-02-19T23:14:07.595Z,102200.94
2023-02-19T23:16:38.232Z,102197.63
2023-02-19T23:19:08.017Z,102190.16
2023-02-19T23:21:34.975Z,102189.16
2023-02-19T23:24:02.020Z,102184.88
2023-02-19T23:26:30.419Z,102184.03
2023-02-19T23:28:57.825Z,102185.38
2023-02-19T23:31:26.684Z,102178.16
2023-02-19T23:33:55.076Z,102182.31
2023-02-19T23:36:23.754Z,102171.75
2023-02-19T23:38:50.959Z,102164.84
2023-02-19T23:41:18.708Z,102160.69
2023-02-19T23:43:47.284Z,102150.13
2023-02-19T23:46:17.656Z,102145.13
2023-02-19T23:48:46.039Z,102155.41
2023-02-19T23:51:13.071Z,102143.84
2023-02-19T23:53:40.299Z,102141.22
2023-02-19T23:56:07.866Z,102134.81
2023-02-19T23:58:34.802Z,102126.09
